Time;durP1;ratioP1;P1;durP2;ratioP2;P2;SDS_P1;SDS_P2;PMS_P1;PMS_P2;Temp;Humidity;BMP_temperature;BMP_pressure;BME280_temperature;BME280_humidity;BME280_pressure;Samples;Min_cycle;Max_cycle;Signal;HPM_P1;HPM_P2
2020/12/11 00:00:55;;;;;;;35.20;19.30;;;;;;;1.27;100.00;99085.50;5119941;28;20486;-30
2020/12/11 00:03:41;;;;;;;32.43;18.83;;;;;;;1.28;100.00;99075.31;5119943;28;20314;-30
2020/12/11 00:06:28;;;;;;;35.27;20.73;;;;;;;1.39;100.00;99072.88;5119297;28;20329;-30
2020/12/11 00:09:16;;;;;;;32.47;18.20;;;;;;;1.29;100.00;99066.84;5119795;28;20198;-30
2020/12/11 00:12:02;;;;;;;36.23;19.00;;;;;;;1.34;100.00;99065.19;5119887;28;20592;-29
2020/12/11 00:14:49;;;;;;;29.87;17.53;;;;;;;1.34;100.00;99059.25;5119982;28;20263;-30
2020/12/11 00:17:35;;;;;;;32.60;17.27;;;;;;;1.25;100.00;99052.38;5121170;28;20484;-30
2020/12/11 00:20:22;;;;;;;36.30;19.33;;;;;;;1.34;100.00;99047.38;5119966;28;20228;-30
2020/12/11 00:23:07;;;;;;;33.27;18.33;;;;;;;1.30;100.00;99043.09;5119305;28;20223;-30
2020/12/11 00:25:58;;;;;;;31.33;17.80;;;;;;;1.35;100.00;99041.44;5118588;28;20295;-29
2020/12/11 00:28:43;;;;;;;32.07;18.67;;;;;;;1.33;100.00;99034.63;5119008;28;20238;-30
2020/12/11 00:31:30;;;;;;;31.70;17.67;;;;;;;1.34;100.00;99031.22;5118927;28;20532;-29
2020/12/11 00:34:15;;;;;;;29.20;18.10;;;;;;;1.31;100.00;99024.41;5119128;28;20197;-30
2020/12/11 00:37:01;;;;;;;28.70;17.00;;;;;;;1.43;100.00;99025.34;5120469;28;20591;-30
2020/12/11 00:39:47;;;;;;;28.23;17.93;;;;;;;1.41;100.00;99020.22;5121605;28;20616;-30
2020/12/11 00:42:33;;;;;;;32.17;18.47;;;;;;;1.35;100.00;99028.69;5119152;28;20199;-30
2020/12/11 00:45:18;;;;;;;31.13;18.50;;;;;;;1.40;100.00;99020.25;5119967;28;20202;-30
2020/12/11 00:48:05;;;;;;;32.83;17.97;;;;;;;1.49;100.00;99015.19;5119269;28;20599;-30
2020/12/11 00:50:51;;;;;;;30.77;17.97;;;;;;;1.42;100.00;99004.09;5119568;28;20477;-30
2020/12/11 00:53:36;;;;;;;30.13;16.37;;;;;;;1.42;100.00;99011.75;5119465;28;20372;-30
2020/12/11 00:56:23;;;;;;;30.27;17.33;;;;;;;1.40;100.00;99010.06;5118933;28;20557;-30
2020/12/11 00:59:08;;;;;;;30.53;17.07;;;;;;;1.46;100.00;99007.53;5120629;28;20206;-30
2020/12/11 01:01:54;;;;;;;28.43;17.60;;;;;;;1.38;100.00;99000.72;5121416;28;20237;-30
2020/12/11 01:04:41;;;;;;;27.33;17.20;;;;;;;1.37;100.00;98982.88;5119423;28;20616;-30
2020/12/11 01:07:27;;;;;;;32.47;17.80;;;;;;;1.34;100.00;98965.00;5118598;28;20255;-30
2020/12/11 01:10:12;;;;;;;32.77;18.67;;;;;;;1.40;100.00;98959.94;5119654;28;20194;-30
2020/12/11 01:12:58;;;;;;;31.50;17.07;;;;;;;1.43;100.00;98964.19;5119724;28;20197;-30
2020/12/11 01:15:44;;;;;;;30.70;17.33;;;;;;;1.47;100.00;98963.38;5118814;28;20294;-30
2020/12/11 01:18:29;;;;;;;29.77;17.03;;;;;;;1.45;100.00;98952.31;5119451;28;20190;-30
2020/12/11 01:21:16;;;;;;;28.47;17.63;;;;;;;1.54;100.00;98952.41;5121774;28;20198;-30
2020/12/11 01:24:02;;;;;;;30.30;18.27;;;;;;;1.44;100.00;98943.84;5118159;28;20218;-30
2020/12/11 01:26:49;;;;;;;31.50;18.40;;;;;;;1.44;100.00;98938.75;5118945;28;20214;-30
2020/12/11 01:29:34;;;;;;;30.50;18.10;;;;;;;1.57;100.00;98930.34;5118650;28;20234;-30
2020/12/11 01:32:20;;;;;;;28.63;17.60;;;;;;;1.61;100.00;98932.03;5118787;28;20206;-30
2020/12/11 01:35:06;;;;;;;27.97;17.70;;;;;;;1.51;100.00;98920.09;5119153;28;20333;-30
2020/12/11 01:37:53;;;;;;;34.50;19.90;;;;;;;1.56;100.00;98920.13;5122964;28;20190;-30
2020/12/11 01:40:39;;;;;;;31.63;18.57;;;;;;;1.40;100.00;98914.09;5122856;28;20252;-29
2020/12/11 01:43:25;;;;;;;30.73;18.90;;;;;;;1.44;100.00;98910.72;5123777;28;20218;-30
2020/12/11 01:46:15;;;;;;;29.80;17.07;;;;;;;1.48;100.00;98912.44;5122205;28;20199;-30
2020/12/11 01:49:01;;;;;;;25.00;15.73;;;;;;;1.50;100.00;98915.84;5122411;28;20256;-30
2020/12/11 01:51:50;;;;;;;28.77;17.63;;;;;;;1.60;100.00;98911.69;5121742;28;20487;-30
2020/12/11 01:54:36;;;;;;;26.63;15.50;;;;;;;1.53;100.00;98900.59;5123067;28;20198;-30
2020/12/11 01:57:27;;;;;;;27.80;16.93;;;;;;;1.55;100.00;98896.34;5123653;28;20198;-30
2020/12/11 02:00:13;;;;;;;29.50;17.87;;;;;;;1.47;100.00;98886.97;5123069;28;20214;-29
2020/12/11 02:03:04;;;;;;;30.40;18.27;;;;;;;1.52;100.00;98882.75;5121465;28;20592;-30
2020/12/11 02:05:50;;;;;;;30.50;17.60;;;;;;;1.51;100.00;98876.78;5121679;28;20206;-30
2020/12/11 02:08:36;;;;;;;28.07;17.33;;;;;;;1.57;100.00;98876.84;5122193;28;20198;-30
2020/12/11 02:11:23;;;;;;;31.80;19.67;;;;;;;1.59;100.00;98871.75;5122167;28;20193;-29
2020/12/11 02:14:09;;;;;;;30.00;18.47;;;;;;;1.47;100.00;98866.56;5122264;28;20315;-29
2020/12/11 02:16:56;;;;;;;29.60;17.67;;;;;;;1.43;100.00;98860.59;5123082;28;20344;-29
2020/12/11 02:19:42;;;;;;;33.80;19.17;;;;;;;1.35;100.00;98858.03;5121170;28;20606;-29
2020/12/11 02:22:29;;;;;;;30.70;17.87;;;;;;;1.41;100.00;98849.56;5121332;28;20191;-30
2020/12/11 02:25:15;;;;;;;33.60;19.70;;;;;;;1.39;100.00;98851.28;5122563;28;20307;-29
2020/12/11 02:28:00;;;;;;;33.20;19.57;;;;;;;1.43;100.00;98849.56;5122237;28;20300;-29
2020/12/11 02:30:46;;;;;;;32.17;18.63;;;;;;;1.43;100.00;98842.78;5125046;28;20186;-30
2020/12/11 02:33:33;;;;;;;33.77;18.67;;;;;;;1.32;100.00;98846.97;5120809;28;20240;-29
2020/12/11 02:36:20;;;;;;;41.10;23.80;;;;;;;1.49;100.00;98841.97;5121681;28;20616;-29
2020/12/11 02:39:07;;;;;;;32.80;18.60;;;;;;;1.54;100.00;98843.69;5121734;28;20199;-30
2020/12/11 02:41:59;;;;;;;35.10;19.23;;;;;;;1.61;100.00;98850.50;5121369;28;20463;-30
2020/12/11 02:44:45;;;;;;;33.33;19.17;;;;;;;1.57;100.00;98846.25;5121754;28;20230;-30
2020/12/11 02:47:32;;;;;;;31.60;18.57;;;;;;;1.54;100.00;98847.94;5120739;28;20305;-29
2020/12/11 02:50:19;;;;;;;34.27;18.47;;;;;;;1.37;100.00;98840.22;5122187;28;20291;-29
2020/12/11 02:53:05;;;;;;;29.47;17.73;;;;;;;1.48;100.00;98825.81;5122480;28;20249;-30
2020/12/11 02:55:51;;;;;;;28.93;17.90;;;;;;;1.48;100.00;98825.81;5121988;28;20248;-30
2020/12/11 02:58:37;;;;;;;31.60;17.90;;;;;;;1.52;100.00;98819.06;5121672;28;20296;-30
2020/12/11 03:01:25;;;;;;;32.60;19.23;;;;;;;1.46;100.00;98814.78;5121228;28;20194;-29
2020/12/11 03:04:11;;;;;;;29.73;17.10;;;;;;;1.44;100.00;98813.91;5121152;28;20234;-29
2020/12/11 03:06:57;;;;;;;33.17;19.07;;;;;;;1.47;100.00;98796.09;5121157;28;20198;-29
2020/12/11 03:09:44;;;;;;;32.30;17.93;;;;;;;1.47;100.00;98806.28;5120967;28;20202;-29
2020/12/11 03:12:31;;;;;;;31.97;18.13;;;;;;;1.52;100.00;98799.53;5120639;28;20198;-29
2020/12/11 03:15:17;;;;;;;31.50;19.03;;;;;;;1.63;100.00;98789.34;5122178;28;20558;-30
2020/12/11 03:18:03;;;;;;;31.60;17.40;;;;;;;1.49;100.00;98784.22;5120885;28;20328;-29
2020/12/11 03:20:49;;;;;;;30.53;17.30;;;;;;;1.53;100.00;98780.84;5121129;28;20257;-29
2020/12/11 03:23:36;;;;;;;28.80;16.70;;;;;;;1.59;100.00;98774.94;5122351;28;20282;-30
2020/12/11 03:26:22;;;;;;;30.93;17.90;;;;;;;1.63;100.00;98768.97;5121425;28;20356;-30
2020/12/11 03:29:08;;;;;;;29.97;16.67;;;;;;;1.63;100.00;98763.88;5120350;28;20233;-29
2020/12/11 03:31:54;;;;;;;29.80;17.70;;;;;;;1.68;100.00;98770.69;5121658;28;20198;-29
2020/12/11 03:34:40;;;;;;;29.57;16.63;;;;;;;1.59;100.00;98767.28;5120810;28;20194;-29
2020/12/11 03:37:28;;;;;;;28.67;16.63;;;;;;;1.59;100.00;98775.78;5120824;28;20592;-29
2020/12/11 03:40:14;;;;;;;30.40;17.60;;;;;;;1.57;100.00;98762.19;5121593;28;20202;-29
2020/12/11 03:43:00;;;;;;;29.37;16.93;;;;;;;1.62;100.00;98759.63;5121306;28;20240;-30
2020/12/11 03:45:47;;;;;;;29.23;18.17;;;;;;;1.57;100.00;98751.97;5119981;28;20222;-29
2020/12/11 03:48:33;;;;;;;31.33;17.20;;;;;;;1.62;100.00;98754.53;5120498;28;20466;-29
2020/12/11 03:51:19;;;;;;;28.63;18.00;;;;;;;1.70;100.00;98756.25;5120994;28;20255;-29
2020/12/11 03:54:06;;;;;;;31.97;18.33;;;;;;;1.69;100.00;98767.28;5121075;28;20210;-30
2020/12/11 03:56:51;;;;;;;28.73;17.20;;;;;;;1.60;100.00;98758.78;5120360;28;20218;-29
2020/12/11 03:59:37;;;;;;;27.67;16.70;;;;;;;1.60;100.00;98754.50;5120316;28;20340;-29
2020/12/11 04:02:28;;;;;;;29.20;17.60;;;;;;;1.63;100.00;98751.13;5119191;28;20265;-30
2020/12/11 04:05:20;;;;;;;28.53;17.40;;;;;;;1.60;100.00;98751.97;5120135;28;20579;-30
2020/12/11 04:08:09;;;;;;;31.17;18.07;;;;;;;1.61;100.00;98747.72;5119441;28;20197;-29
2020/12/11 04:10:56;;;;;;;32.33;19.13;;;;;;;1.65;100.00;98757.09;5121255;28;20644;-29
2020/12/11 04:13:42;;;;;;;32.20;18.43;;;;;;;1.79;100.00;98754.59;5121189;28;20202;-30
2020/12/11 04:16:28;;;;;;;35.13;18.30;;;;;;;1.54;100.00;98756.22;5121026;28;20214;-29
2020/12/11 04:19:14;;;;;;;34.80;21.07;;;;;;;1.63;100.00;98743.47;5121394;28;20214;-29
2020/12/11 04:22:00;;;;;;;32.23;17.90;;;;;;;1.60;100.00;98738.41;5121439;28;20488;-29
2020/12/11 04:24:45;;;;;;;31.93;18.10;;;;;;;1.68;100.00;98741.81;5119456;28;20292;-29
2020/12/11 04:27:31;;;;;;;30.27;17.93;;;;;;;1.50;100.00;98744.31;5120043;28;20243;-30
2020/12/11 04:30:17;;;;;;;34.07;19.57;;;;;;;1.50;100.00;98751.94;5119378;28;20190;-29
2020/12/11 04:33:03;;;;;;;36.70;20.13;;;;;;;1.61;100.00;98755.38;5120823;28;20512;-29
2020/12/11 04:35:53;;;;;;;33.00;19.50;;;;;;;1.75;100.00;98752.88;5120599;28;20194;-29
2020/12/11 04:38:39;;;;;;;34.30;20.23;;;;;;;1.97;100.00;98755.44;5120383;28;20194;-29
2020/12/11 04:41:29;;;;;;;34.67;20.13;;;;;;;1.73;100.00;98756.25;5121687;28;20225;-29
2020/12/11 04:44:24;;;;;;;37.27;20.60;;;;;;;1.62;100.00;98752.81;5120128;28;20604;-29
2020/12/11 04:47:11;;;;;;;36.87;21.30;;;;;;;1.65;100.00;98752.84;5119754;28;20198;-29
2020/12/11 04:49:57;;;;;;;33.30;19.63;;;;;;;1.56;100.00;98750.28;5119614;28;20202;-29
2020/12/11 04:52:46;;;;;;;31.30;19.83;;;;;;;1.66;100.00;98753.69;5120577;28;20480;-29
2020/12/11 04:55:38;;;;;;;34.13;19.10;;;;;;;1.60;100.00;98749.41;5124235;28;20194;-29
2020/12/11 04:58:26;;;;;;;32.83;19.30;;;;;;;1.59;100.00;98741.81;5120133;28;20194;-29
2020/12/11 05:01:22;;;;;;;38.03;19.67;;;;;;;1.68;100.00;98737.56;5120266;28;20206;-29
2020/12/11 05:04:08;;;;;;;35.00;20.17;;;;;;;1.57;100.00;98726.50;5120774;28;20247;-29
2020/12/11 05:07:01;;;;;;;34.50;19.53;;;;;;;1.63;100.00;98723.94;5120924;28;20295;-29
2020/12/11 05:09:57;;;;;;;32.83;19.20;;;;;;;1.70;100.00;98720.56;5118777;28;20526;-29
2020/12/11 05:12:42;;;;;;;40.73;19.47;;;;;;;1.58;100.00;98707.81;5102319;28;20546;-29
2020/12/11 05:15:29;;;;;;;32.17;19.53;;;;;;;1.62;100.00;98708.66;5105250;28;20249;-29
2020/12/11 05:18:22;;;;;;;35.20;20.20;;;;;;;1.59;100.00;98711.22;5122739;28;20202;-29
2020/12/11 05:21:19;;;;;;;29.27;18.20;;;;;;;1.68;100.00;98701.03;5125210;28;20245;-29
2020/12/11 05:24:06;;;;;;;32.70;18.60;;;;;;;1.50;100.00;98689.13;5124536;28;20210;-29
2020/12/11 05:26:53;;;;;;;33.23;20.53;;;;;;;1.50;100.00;98680.63;5122867;28;20193;-29
2020/12/11 05:29:39;;;;;;;33.43;19.97;;;;;;;1.48;100.00;98678.06;5123386;28;20655;-29
2020/12/11 05:32:40;;;;;;;29.93;18.60;;;;;;;1.52;100.00;98669.59;5123375;28;20599;-28
2020/12/11 05:35:30;;;;;;;32.27;18.83;;;;;;;1.41;100.00;98661.06;5123767;28;20229;-29
2020/12/11 05:38:17;;;;;;;34.57;19.23;;;;;;;1.45;100.00;98654.28;5123188;28;20291;-29
2020/12/11 05:41:03;;;;;;;37.70;20.40;;;;;;;1.43;100.00;98649.19;5124191;28;20304;-29
2020/12/11 05:43:54;;;;;;;30.77;18.47;;;;;;;1.42;100.00;98652.56;5114785;28;20472;-29
2020/12/11 05:46:47;;;;;;;37.97;20.97;;;;;;;1.46;100.00;98638.16;5122337;28;20488;-29
2020/12/11 05:49:37;;;;;;;36.43;20.00;;;;;;;1.41;100.00;98638.13;5122855;28;20299;-28
2020/12/11 05:52:25;;;;;;;38.73;21.07;;;;;;;1.38;100.00;98633.91;5123663;28;20198;-28
2020/12/11 05:55:17;;;;;;;35.20;20.30;;;;;;;1.40;100.00;98625.44;5123872;28;20202;-29
2020/12/11 05:58:03;;;;;;;34.70;18.23;;;;;;;1.37;100.00;98609.28;5124146;28;20203;-29
2020/12/11 06:00:52;;;;;;;32.00;19.17;;;;;;;1.41;100.00;98605.03;5122321;28;20771;-29
2020/12/11 06:03:39;;;;;;;36.25;21.50;;;;;;;1.42;100.00;98606.72;5121231;28;20461;-29
2020/12/11 06:06:26;;;;;;;33.43;19.90;;;;;;;1.45;100.00;98601.63;5122801;28;20207;-28
2020/12/11 06:09:14;;;;;;;33.20;19.40;;;;;;;1.50;100.00;98606.75;5122690;28;20642;-29
2020/12/11 06:12:01;;;;;;;35.00;18.70;;;;;;;1.48;100.00;98599.09;5123606;28;20202;-28
2020/12/11 06:15:01;;;;;;;34.97;20.30;;;;;;;1.53;100.00;98594.88;5121760;28;20337;-28
2020/12/11 06:17:52;;;;;;;32.50;18.53;;;;;;;1.52;100.00;98593.16;5122218;28;20253;-28
2020/12/11 06:20:39;;;;;;;35.00;20.23;;;;;;;1.58;100.00;98602.50;5123936;28;20257;-29
2020/12/11 06:23:27;;;;;;;33.33;19.70;;;;;;;1.59;100.00;98597.41;5099741;28;20539;-29
2020/12/11 06:26:14;;;;;;;36.47;20.80;;;;;;;1.51;100.00;98600.81;5101009;28;20628;-28
2020/12/11 06:29:00;;;;;;;35.97;20.43;;;;;;;1.58;100.00;98599.97;5100373;28;20554;-29
2020/12/11 06:31:47;;;;;;;34.47;18.23;;;;;;;1.53;100.00;98597.41;5102073;28;20473;-29
2020/12/11 06:34:34;;;;;;;36.63;21.23;;;;;;;1.60;100.00;98585.53;5099957;28;20199;-28
2020/12/11 06:37:36;;;;;;;35.13;19.87;;;;;;;1.52;100.00;98572.78;5102885;28;20191;-28
2020/12/11 06:40:47;;;;;;;31.80;18.63;;;;;;;1.56;100.00;98564.28;5104972;28;20198;-28
2020/12/11 06:43:37;;;;;;;33.07;20.57;;;;;;;1.61;100.00;98570.22;5099876;28;20294;-29
2020/12/11 06:46:25;;;;;;;31.97;20.50;;;;;;;1.56;100.00;98559.19;5099915;28;20298;-28
2020/12/11 06:49:12;;;;;;;35.83;20.07;;;;;;;1.55;100.00;98562.59;5099826;28;20195;-29
2020/12/11 06:52:15;;;;;;;32.70;19.53;;;;;;;1.57;100.00;98558.34;5100334;28;20662;-29
2020/12/11 06:55:01;;;;;;;32.93;19.03;;;;;;;1.55;100.00;98552.41;5100349;28;20280;-28
2020/12/11 06:57:51;;;;;;;32.57;18.57;;;;;;;1.67;100.00;98548.97;5104213;28;20260;-29
2020/12/11 07:00:53;;;;;;;29.47;19.07;;;;;;;1.74;100.00;98548.13;5120600;28;20488;-29
2020/12/11 07:03:41;;;;;;;32.10;18.97;;;;;;;1.58;100.00;98544.75;5122263;28;20205;-28
2020/12/11 07:06:27;;;;;;;32.73;20.23;;;;;;;1.70;100.00;98551.53;5121193;28;20307;-28
2020/12/11 07:09:14;;;;;;;34.53;20.00;;;;;;;1.63;100.00;98537.94;5121941;28;20198;-29
2020/12/11 07:11:59;;;;;;;33.73;19.23;;;;;;;1.56;100.00;98537.97;5120724;28;20323;-28
2020/12/11 07:14:45;;;;;;;31.87;19.57;;;;;;;1.63;100.00;98524.34;5121092;28;20197;-29
2020/12/11 07:17:32;;;;;;;33.97;19.43;;;;;;;1.57;100.00;98526.94;5119806;28;20199;-28
2020/12/11 07:20:19;;;;;;;35.93;19.77;;;;;;;1.58;100.00;98510.78;5120517;28;20206;-28
2020/12/11 07:23:04;;;;;;;33.67;19.43;;;;;;;1.61;100.00;98510.75;5121015;28;20201;-28
2020/12/11 07:25:53;;;;;;;30.20;18.67;;;;;;;1.64;100.00;98506.50;5122845;28;20513;-28
2020/12/11 07:28:39;;;;;;;33.80;20.13;;;;;;;1.62;100.00;98507.34;5120554;28;20242;-28
2020/12/11 07:31:26;;;;;;;36.63;20.77;;;;;;;1.63;100.00;98506.50;5121709;28;20202;-28
2020/12/11 07:34:13;;;;;;;34.83;20.03;;;;;;;1.75;100.00;98505.66;5121540;28;20221;-28
2020/12/11 07:37:00;;;;;;;34.00;20.53;;;;;;;1.73;100.00;98498.88;5123079;28;20304;-28
2020/12/11 07:39:45;;;;;;;31.67;19.33;;;;;;;1.70;100.00;98495.47;5122482;28;20202;-28
2020/12/11 07:42:32;;;;;;;34.33;19.63;;;;;;;1.70;100.00;98493.78;5121386;28;20271;-28
2020/12/11 07:45:27;;;;;;;31.77;20.40;;;;;;;1.74;100.00;98486.97;5122283;28;20272;-28
2020/12/11 07:48:14;;;;;;;32.40;19.57;;;;;;;1.75;100.00;98487.81;5122887;28;20206;-28
2020/12/11 07:51:04;;;;;;;30.63;19.73;;;;;;;1.79;100.00;98481.88;5119946;28;20322;-28
2020/12/11 07:53:53;;;;;;;29.50;18.57;;;;;;;1.76;100.00;98482.72;5119859;28;20261;-28
2020/12/11 07:56:43;;;;;;;29.43;18.70;;;;;;;1.84;100.00;98480.13;5119660;28;20303;-28
2020/12/11 07:59:29;;;;;;;29.93;18.83;;;;;;;1.75;100.00;98473.38;5120246;28;20248;-28
2020/12/11 08:02:15;;;;;;;29.73;18.50;;;;;;;1.90;100.00;98468.22;5123103;28;20248;-29
2020/12/11 08:05:04;;;;;;;29.97;18.27;;;;;;;1.90;100.00;98464.81;5127652;28;20226;-28
2020/12/11 08:07:54;;;;;;;25.37;17.93;;;;;;;1.94;100.00;98461.41;5123301;28;20202;-28
2020/12/11 08:10:42;;;;;;;27.70;18.43;;;;;;;1.98;100.00;98465.66;5120569;28;20474;-28
2020/12/11 08:13:27;;;;;;;27.53;18.13;;;;;;;1.91;100.00;98461.44;5121534;28;20198;-29
2020/12/11 08:16:21;;;;;;;28.43;17.73;;;;;;;2.04;100.00;98460.50;5120244;28;20197;-28
2020/12/11 08:19:10;;;;;;;28.70;18.77;;;;;;;2.01;100.00;98455.41;5120676;28;20232;-28
2020/12/11 08:21:56;;;;;;;27.20;18.23;;;;;;;2.01;100.00;98457.97;5118564;28;20194;-28
2020/12/11 08:24:43;;;;;;;26.93;17.70;;;;;;;2.01;100.00;98455.41;5119014;28;20222;-28
2020/12/11 08:27:29;;;;;;;25.87;16.70;;;;;;;2.07;100.00;98452.84;5118859;28;20230;-28
2020/12/11 08:30:15;;;;;;;25.27;16.23;;;;;;;2.17;100.00;98453.69;5118937;28;20202;-28
2020/12/11 08:33:09;;;;;;;24.20;16.53;;;;;;;2.23;100.00;98446.81;5119305;28;20244;-28
2020/12/11 08:35:55;;;;;;;25.90;16.87;;;;;;;2.24;100.00;98447.66;5118971;28;20194;-28
2020/12/11 08:38:41;;;;;;;26.17;16.00;;;;;;;2.23;100.00;98451.06;5119193;28;20190;-28
2020/12/11 08:41:29;;;;;;;22.80;15.97;;;;;;;2.21;100.00;98445.13;5119033;28;20194;-28
2020/12/11 08:44:32;;;;;;;24.03;16.43;;;;;;;2.30;100.00;98448.50;5119291;28;20340;-28
2020/12/11 08:47:39;;;;;;;25.30;17.07;;;;;;;2.34;100.00;98434.88;5120003;28;20198;-28
2020/12/11 08:50:31;;;;;;;21.43;14.93;;;;;;;2.29;100.00;98421.28;5121221;28;20228;-29
2020/12/11 08:53:18;;;;;;;20.40;14.97;;;;;;;2.30;100.00;98427.25;5120870;28;20252;-35
2020/12/11 08:56:06;;;;;;;21.97;15.70;;;;;;;2.40;100.00;98423.75;5121762;28;20198;-29
2020/12/11 08:58:54;;;;;;;25.70;17.07;;;;;;;2.44;100.00;98407.59;5121272;28;20197;-29
2020/12/11 09:01:41;;;;;;;22.97;17.50;;;;;;;2.54;100.00;98411.78;5101576;28;20489;-28
2020/12/11 09:04:28;;;;;;;22.63;15.53;;;;;;;2.57;100.00;98401.56;5100040;28;20304;-28
2020/12/11 09:07:15;;;;;;;20.67;13.80;;;;;;;2.55;100.00;98398.16;5099689;28;20195;-29
2020/12/11 09:10:00;;;;;;;19.63;14.33;;;;;;;2.62;100.00;98388.75;5099219;28;20195;-29
2020/12/11 09:12:51;;;;;;;21.87;14.93;;;;;;;2.79;100.00;98375.88;5102666;28;20204;-28
2020/12/11 09:15:39;;;;;;;22.33;14.57;;;;;;;2.94;100.00;98376.59;5098808;28;20223;-29
2020/12/11 09:18:25;;;;;;;21.27;16.00;;;;;;;3.04;100.00;98367.97;5097583;28;20200;-29
2020/12/11 09:21:11;;;;;;;21.67;14.37;;;;;;;3.11;100.00;98363.66;5097271;28;20334;-29
2020/12/11 09:23:58;;;;;;;21.33;14.60;;;;;;;3.33;100.00;98374.50;5097283;28;20526;-33
2020/12/11 09:26:46;;;;;;;21.17;14.33;;;;;;;3.31;100.00;98374.50;5097533;28;20370;-29
2020/12/11 09:29:36;;;;;;;21.20;14.97;;;;;;;3.38;100.00;98377.84;5102913;28;20314;-31
2020/12/11 09:32:32;;;;;;;17.93;13.80;;;;;;;3.31;100.00;98373.66;5118316;28;20579;-30
2020/12/11 09:35:19;;;;;;;22.50;14.20;;;;;;;3.30;100.00;98360.03;5117968;28;20191;-29
2020/12/11 09:38:07;;;;;;;22.40;14.60;;;;;;;3.27;100.00;98360.06;5117940;28;20214;-29
2020/12/11 09:40:56;;;;;;;24.57;16.83;;;;;;;3.34;100.00;98356.59;5118699;28;20301;-29
2020/12/11 09:44:07;;;;;;;24.07;15.33;;;;;;;3.35;100.00;98365.97;5119938;28;20235;-29
2020/12/11 09:47:11;;;;;;;26.53;16.87;;;;;;;3.39;100.00;98366.78;5118514;28;20224;-29
2020/12/11 09:50:09;;;;;;;23.63;16.07;;;;;;;3.54;100.00;98364.03;5118913;28;20203;-29
2020/12/11 09:53:08;;;;;;;19.20;13.23;;;;;;;3.71;100.00;98369.78;5118935;28;20195;-29
2020/12/11 09:56:00;;;;;;;20.57;15.13;;;;;;;3.84;100.00;98362.81;5118651;28;20233;-29
2020/12/11 09:59:02;;;;;;;23.53;15.63;;;;;;;3.88;100.00;98363.63;5121759;28;20200;-29
2020/12/11 10:02:09;;;;;;;21.03;14.40;;;;;;;3.86;100.00;98370.47;5112552;28;20482;-30
2020/12/11 10:04:59;;;;;;;21.33;14.27;;;;;;;3.66;100.00;98368.16;5120609;28;20331;-30
2020/12/11 10:07:45;;;;;;;23.37;14.90;;;;;;;3.90;100.00;98374.66;5121772;28;20552;-29
2020/12/11 10:10:34;;;;;;;19.63;14.60;;;;;;;3.83;100.00;98370.50;5121920;28;20336;-29
2020/12/11 10:13:20;;;;;;;20.63;13.97;;;;;;;3.97;100.00;98371.19;5122275;28;20253;-29
2020/12/11 10:16:07;;;;;;;18.93;13.53;;;;;;;3.81;100.00;98362.84;5121587;28;20199;-30
2020/12/11 10:18:53;;;;;;;20.90;13.90;;;;;;;3.98;100.00;98354.97;5122231;28;20263;-29
2020/12/11 10:21:40;;;;;;;20.80;14.33;;;;;;;3.88;100.00;98358.50;5121871;28;20203;-29
2020/12/11 10:24:26;;;;;;;22.00;14.40;;;;;;;4.04;100.00;98350.59;5121574;28;20195;-29
2020/12/11 10:27:12;;;;;;;18.57;14.30;;;;;;;4.15;100.00;98353.88;5121344;28;20578;-29
2020/12/11 10:29:58;;;;;;;20.23;14.30;;;;;;;4.18;100.00;98337.63;5120965;28;20560;-30
2020/12/11 10:32:48;;;;;;;20.10;15.00;;;;;;;4.41;100.00;98340.66;5121440;28;20255;-29
2020/12/11 10:35:34;;;;;;;20.77;14.07;;;;;;;4.27;100.00;98334.91;5120991;28;20370;-30
2020/12/11 10:38:20;;;;;;;18.83;14.20;;;;;;;4.45;100.00;98326.94;5120243;28;20204;-30
2020/12/11 10:41:09;;;;;;;20.73;13.77;;;;;;;4.47;100.00;98321.81;5121191;28;20191;-29
2020/12/11 10:43:56;;;;;;;19.47;13.80;;;;;;;4.40;100.00;98317.66;5120055;28;20257;-29
2020/12/11 10:46:43;;;;;;;19.50;13.27;;;;;;;4.36;100.00;98313.47;5120841;28;20497;-30
2020/12/11 10:49:29;;;;;;;18.27;12.87;;;;;;;4.60;100.00;98312.22;5121945;28;20217;-29
2020/12/11 10:52:17;;;;;;;16.83;12.63;;;;;;;4.52;100.00;98322.59;5121526;28;20202;-29
2020/12/11 10:55:03;;;;;;;16.73;13.30;;;;;;;4.64;100.00;98306.16;5119494;28;20209;-29
2020/12/11 10:57:53;;;;;;;19.37;13.07;;;;;;;4.66;100.00;98304.44;5119853;28;20553;-29
2020/12/11 11:00:39;;;;;;;18.80;12.27;;;;;;;4.64;100.00;98290.81;5121598;28;20388;-30
2020/12/11 11:03:28;;;;;;;15.73;10.73;;;;;;;4.49;100.00;98281.69;5119924;28;20256;-29
2020/12/11 11:06:21;;;;;;;18.70;14.07;;;;;;;4.76;100.00;98275.25;5120475;28;20483;-29
2020/12/11 11:09:18;;;;;;;16.70;12.67;;;;;;;4.69;100.00;98278.78;5118946;28;20222;-30
2020/12/11 11:12:16;;;;;;;17.70;13.00;;;;;;;4.83;100.00;98272.53;5120193;28;20206;-29
2020/12/11 11:15:26;;;;;;;19.83;13.73;;;;;;;4.96;100.00;98262.06;5119812;28;20194;-29
2020/12/11 11:24:36;;;;;;;22.47;13.90;;;;;;;5.01;100.00;98250.84;5121063;28;20198;-29
2020/12/11 11:27:25;;;;;;;18.33;12.93;;;;;;;4.85;100.00;98252.00;5118339;28;20206;-30
2020/12/11 11:30:11;;;;;;;20.47;13.50;;;;;;;4.81;100.00;98248.66;5119395;28;20259;-30
2020/12/11 11:32:57;;;;;;;19.57;13.53;;;;;;;4.95;100.00;98245.88;5119759;28;20387;-30
2020/12/11 11:39:37;;;;;;;16.60;12.87;;;;;;;5.10;100.00;98242.16;5119476;28;20322;-30
2020/12/11 11:42:23;;;;;;;17.30;12.43;;;;;;;5.06;100.00;98243.91;5120744;28;20486;-30
2020/12/11 11:45:14;;;;;;;16.97;12.33;;;;;;;5.08;100.00;98246.47;5118635;28;20260;-29
2020/12/11 11:48:00;;;;;;;16.33;12.33;;;;;;;5.14;100.00;98249.75;5119789;28;20234;-30
2020/12/11 11:50:55;;;;;;;17.40;12.40;;;;;;;5.46;100.00;98249.09;5119479;28;20472;-30
2020/12/11 11:53:42;;;;;;;14.60;11.67;;;;;;;5.45;100.00;98249.13;5119127;28;20596;-30
2020/12/11 11:56:29;;;;;;;15.97;11.50;;;;;;;5.46;100.00;98243.13;5119377;28;20190;-30
2020/12/11 11:59:15;;;;;;;14.50;10.70;;;;;;;5.30;100.00;98234.91;5127592;28;20217;-31
2020/12/11 12:02:02;;;;;;;16.83;11.93;;;;;;;5.42;100.00;98232.06;5119403;28;20291;-30
2020/12/11 12:04:48;;;;;;;14.53;11.07;;;;;;;5.44;100.00;98227.75;5119394;28;20475;-30
2020/12/11 12:07:35;;;;;;;12.13;10.40;;;;;;;5.36;100.00;98223.69;5120530;28;20198;-31
2020/12/11 12:10:23;;;;;;;15.17;10.60;;;;;;;5.38;100.00;98227.06;5118534;28;20199;-30
2020/12/11 12:13:10;;;;;;;18.90;12.90;;;;;;;5.47;100.00;98216.59;5117859;28;20249;-30
2020/12/11 12:15:58;;;;;;;16.17;12.13;;;;;;;5.53;100.00;98209.63;5098859;28;20675;-30
2020/12/11 12:18:45;;;;;;;17.63;12.10;;;;;;;5.63;100.00;98205.13;5099288;28;20253;-30
2020/12/11 12:21:39;;;;;;;15.20;10.23;;;;;;;5.41;100.00;98203.91;5100224;28;20195;-30
2020/12/11 12:30:35;;;;;;;15.17;10.83;;;;;;;5.42;100.00;98185.94;5067730;28;20198;-30
2020/12/11 12:36:54;;;;;;;14.60;10.40;;;;;;;5.47;100.00;98166.16;5097078;28;20198;-30
2020/12/11 12:40:07;;;;;;;16.57;10.80;;;;;;;5.62;100.00;98167.53;5096805;28;20612;-30
2020/12/11 12:43:09;;;;;;;19.03;11.13;;;;;;;5.56;100.00;98172.81;5098155;28;20203;-30
2020/12/11 12:45:56;;;;;;;13.07;10.60;;;;;;;5.47;100.00;98176.41;5097642;28;20257;-29
2020/12/11 12:48:43;;;;;;;14.93;11.43;;;;;;;5.29;100.00;98181.94;5099650;28;20296;-30
2020/12/11 12:51:29;;;;;;;15.87;12.50;;;;;;;5.52;100.00;98177.16;5098292;28;20199;-30
2020/12/11 12:54:15;;;;;;;18.93;13.80;;;;;;;5.35;100.00;98178.41;5097834;28;20597;-30
2020/12/11 12:57:04;;;;;;;18.43;13.10;;;;;;;5.30;100.00;98178.50;5097985;28;20202;-30
2020/12/11 12:59:54;;;;;;;19.07;13.23;;;;;;;5.06;100.00;98172.19;5096908;28;20484;-30
2020/12/11 13:05:53;;;;;;;19.87;13.50;;;;;;;4.88;100.00;98154.63;5077331;28;20226;-30
2020/12/11 13:08:48;;;;;;;22.70;14.67;;;;;;;4.80;100.00;98159.03;5117656;28;20241;-30
2020/12/11 13:11:38;;;;;;;21.77;13.43;;;;;;;4.82;100.00;98158.16;5117506;28;20500;-30
2020/12/11 13:14:32;;;;;;;21.47;14.73;;;;;;;4.83;100.00;98156.44;5117696;28;20202;-30
2020/12/11 13:17:19;;;;;;;21.33;14.07;;;;;;;4.82;100.00;98154.75;5120043;28;20592;-29